Time;durP1;ratioP1;P1;durP2;ratioP2;P2;SDS_P1;SDS_P2;PMS_P1;PMS_P2;Temp;Humidity;BMP_temperature;BMP_pressure;BME280_temperature;BME280_humidity;BME280_pressure;Samples;Min_cycle;Max_cycle;Signal;HPM_P1;HPM_P2
2021/10/16 00:01:20;;;;;;;0.70;0.50;;;7.30;99.90;;;;;;5036120;28;20202;-70
2021/10/16 00:03:46;;;;;;;0.70;0.63;;;7.20;99.90;;;;;;5023401;28;20171;-69
2021/10/16 00:06:12;;;;;;;0.70;0.50;;;7.20;99.90;;;;;;5013965;28;20419;-69
2021/10/16 00:08:37;;;;;;;0.70;0.50;;;7.10;99.90;;;;;;5014604;28;20172;-70
2021/10/16 00:11:04;;;;;;;0.70;0.50;;;7.10;99.90;;;;;;5014348;28;20485;-69
2021/10/16 00:13:30;;;;;;;0.80;0.70;;;7.10;99.90;;;;;;5014373;28;20267;-69
2021/10/16 00:15:56;;;;;;;0.70;0.50;;;7.00;99.90;;;;;;5023294;28;20557;-69
2021/10/16 00:18:21;;;;;;;0.70;0.50;;;7.00;99.90;;;;;;5029329;28;20180;-69
2021/10/16 00:20:47;;;;;;;0.80;0.67;;;7.00;99.90;;;;;;5021633;28;20176;-69
2021/10/16 00:23:12;;;;;;;0.70;0.50;;;7.00;99.90;;;;;;5023497;28;20168;-69
2021/10/16 00:25:38;;;;;;;0.70;0.50;;;6.90;99.90;;;;;;5013901;28;20208;-69
2021/10/16 00:28:03;;;;;;;0.70;0.57;;;6.90;99.90;;;;;;5016921;28;20230;-69
2021/10/16 00:30:29;;;;;;;0.70;0.60;;;6.90;99.90;;;;;;5028136;28;20239;-69
2021/10/16 00:32:54;;;;;;;0.70;0.50;;;6.90;99.90;;;;;;5027374;28;20641;-69
2021/10/16 00:35:20;;;;;;;0.70;0.50;;;6.90;99.90;;;;;;5020923;28;20708;-68
2021/10/16 00:37:46;;;;;;;0.70;0.50;;;6.90;99.90;;;;;;5018491;28;20176;-69
2021/10/16 00:40:12;;;;;;;0.70;0.50;;;6.90;99.90;;;;;;5029241;28;20430;-69
2021/10/16 00:42:49;;;;;;;0.70;0.50;;;6.80;99.90;;;;;;5016247;28;20183;-69
2021/10/16 00:45:16;;;;;;;1.43;1.33;;;6.80;99.90;;;;;;5017914;28;20199;-68
2021/10/16 00:47:44;;;;;;;3.40;3.13;;;6.80;99.90;;;;;;5018631;28;20430;-69
2021/10/16 00:50:11;;;;;;;0.70;0.50;;;6.70;99.90;;;;;;5012319;28;20469;-68
2021/10/16 00:52:38;;;;;;;0.70;0.50;;;6.60;99.90;;;;;;5018514;28;20430;-68
2021/10/16 00:55:06;;;;;;;0.70;0.50;;;6.70;99.90;;;;;;5032167;28;20562;-69
2021/10/16 00:57:32;;;;;;;25.47;1.60;;;6.60;99.90;;;;;;5020007;28;20823;-69
2021/10/16 00:59:57;;;;;;;0.70;0.50;;;6.50;99.90;;;;;;5024437;28;20442;-69
2021/10/16 01:02:23;;;;;;;0.70;0.50;;;6.40;99.90;;;;;;5028502;28;20168;-69
2021/10/16 01:04:49;;;;;;;0.70;0.50;;;6.40;99.90;;;;;;5028755;28;21070;-67
2021/10/16 01:07:15;;;;;;;0.70;0.50;;;6.40;99.90;;;;;;5031328;28;20297;-70
2021/10/16 01:09:45;;;;;;;0.70;0.50;;;6.40;99.90;;;;;;5018512;28;20183;-68
2021/10/16 01:12:11;;;;;;;0.70;0.53;;;6.40;99.90;;;;;;5027395;28;20481;-67
2021/10/16 01:14:44;;;;;;;0.70;0.50;;;6.40;99.90;;;;;;5029280;28;20482;-68
2021/10/16 01:17:11;;;;;;;0.80;0.70;;;6.30;99.90;;;;;;5012997;28;20422;-67
2021/10/16 01:19:40;;;;;;;0.80;0.80;;;6.40;99.90;;;;;;5016024;28;20426;-67
2021/10/16 01:22:07;;;;;;;0.70;0.50;;;6.40;99.90;;;;;;5014360;28;20955;-70
2021/10/16 01:24:34;;;;;;;0.70;0.50;;;6.40;99.90;;;;;;5020112;28;20457;-68
2021/10/16 01:27:01;;;;;;;1.17;1.07;;;6.40;99.90;;;;;;5031563;28;20430;-69
2021/10/16 01:29:26;;;;;;;0.70;0.50;;;6.40;99.90;;;;;;5028466;28;20518;-69
2021/10/16 01:31:53;;;;;;;0.80;0.80;;;6.30;99.90;;;;;;5027087;28;20517;-68
2021/10/16 01:34:19;;;;;;;0.70;0.50;;;6.30;99.90;;;;;;5024056;28;20206;-68
2021/10/16 01:36:47;;;;;;;0.70;0.50;;;6.40;99.90;;;;;;5023062;28;20500;-69
2021/10/16 01:39:13;;;;;;;0.70;0.50;;;6.40;99.90;;;;;;5017020;28;20433;-68
2021/10/16 01:41:39;;;;;;;0.93;0.60;;;6.30;99.90;;;;;;5026006;28;20451;-67
2021/10/16 01:44:06;;;;;;;0.70;0.50;;;6.30;99.90;;;;;;5013940;28;20858;-69
2021/10/16 01:46:32;;;;;;;0.70;0.50;;;6.30;99.90;;;;;;5012775;28;20458;-67
2021/10/16 01:48:57;;;;;;;0.73;0.57;;;6.30;99.90;;;;;;5012261;28;20530;-69
2021/10/16 01:51:23;;;;;;;0.70;0.50;;;6.30;99.90;;;;;;5023898;28;20547;-68
2021/10/16 01:53:48;;;;;;;0.70;0.50;;;6.30;99.90;;;;;;5027431;28;20184;-67
2021/10/16 01:56:14;;;;;;;0.70;0.50;;;6.30;99.90;;;;;;5018594;28;20249;-67
2021/10/16 01:58:39;;;;;;;0.87;0.70;;;6.30;99.90;;;;;;5012598;28;20184;-67
2021/10/16 02:01:05;;;;;;;0.70;0.50;;;6.30;99.90;;;;;;5022546;28;20599;-67
2021/10/16 02:03:30;;;;;;;0.70;0.50;;;6.20;99.90;;;;;;5012460;28;20259;-67
2021/10/16 02:05:56;;;;;;;0.70;0.50;;;6.30;99.90;;;;;;5013275;28;20222;-67
2021/10/16 02:08:22;;;;;;;0.80;0.70;;;6.50;99.90;;;;;;5012332;28;20252;-68
2021/10/16 02:10:47;;;;;;;0.70;0.50;;;6.30;99.90;;;;;;5014699;28;20180;-68
2021/10/16 02:13:13;;;;;;;0.80;0.70;;;6.20;99.90;;;;;;5028976;28;20539;-67
2021/10/16 02:15:39;;;;;;;0.70;0.50;;;6.20;99.90;;;;;;5021786;28;20227;-67
2021/10/16 02:18:04;;;;;;;1.40;0.90;;;6.20;99.90;;;;;;5025503;28;20278;-67
2021/10/16 02:20:30;;;;;;;0.93;0.70;;;6.20;99.90;;;;;;5026402;28;20187;-67
2021/10/16 02:22:56;;;;;;;1.43;1.33;;;6.20;99.90;;;;;;5012308;28;20180;-68
2021/10/16 02:25:21;;;;;;;0.80;0.60;;;6.20;99.90;;;;;;5020720;28;20214;-67
2021/10/16 02:27:47;;;;;;;0.70;0.50;;;6.20;99.90;;;;;;5028921;28;20207;-69
2021/10/16 02:30:12;;;;;;;0.70;0.50;;;6.10;99.90;;;;;;5017457;28;20183;-67
2021/10/16 02:32:38;;;;;;;0.70;0.50;;;6.10;99.90;;;;;;5010920;28;20176;-68
2021/10/16 02:35:04;;;;;;;0.70;0.50;;;6.10;99.90;;;;;;5023510;28;20226;-67
2021/10/16 02:37:30;;;;;;;0.70;0.50;;;6.10;99.90;;;;;;5024935;28;20948;-68
2021/10/16 02:39:55;;;;;;;0.70;0.50;;;6.00;99.90;;;;;;5020644;28;20518;-67
2021/10/16 02:42:21;;;;;;;0.70;0.50;;;6.10;99.90;;;;;;5022708;28;20184;-67
2021/10/16 02:44:48;;;;;;;0.70;0.50;;;6.00;99.90;;;;;;5011241;28;20216;-67
2021/10/16 02:47:14;;;;;;;0.70;0.50;;;6.00;99.90;;;;;;5018257;28;20195;-68
2021/10/16 02:49:40;;;;;;;0.70;0.50;;;5.90;99.90;;;;;;5027665;28;20830;-67
2021/10/16 02:52:05;;;;;;;0.70;0.50;;;5.90;99.90;;;;;;5024250;28;20222;-67
2021/10/16 02:54:31;;;;;;;0.70;0.50;;;5.80;99.90;;;;;;5017302;28;20204;-68
2021/10/16 02:56:56;;;;;;;0.70;0.50;;;5.90;99.90;;;;;;5013795;28;20192;-68
2021/10/16 02:59:22;;;;;;;0.80;0.80;;;5.80;99.90;;;;;;5030003;28;20680;-67
2021/10/16 03:01:48;;;;;;;1.40;0.73;;;5.80;99.90;;;;;;5022183;28;20266;-67
2021/10/16 03:04:13;;;;;;;0.70;0.50;;;5.80;99.90;;;;;;5010499;28;20206;-67
2021/10/16 03:06:40;;;;;;;0.70;0.50;;;5.80;99.90;;;;;;5013499;28;20598;-67
2021/10/16 03:09:05;;;;;;;0.70;0.50;;;5.80;99.90;;;;;;5011604;28;20508;-67
2021/10/16 03:11:31;;;;;;;1.27;1.17;;;5.80;99.90;;;;;;5014163;28;20183;-67
2021/10/16 03:14:01;;;;;;;0.80;0.80;;;5.80;99.90;;;;;;5023224;28;20179;-68
2021/10/16 03:16:27;;;;;;;0.70;0.60;;;5.80;99.90;;;;;;5027414;28;20179;-67
2021/10/16 03:18:53;;;;;;;1.00;0.80;;;5.80;99.90;;;;;;5015246;28;20462;-67
2021/10/16 03:21:20;;;;;;;0.70;0.50;;;5.80;99.90;;;;;;5015670;28;20477;-67
2021/10/16 03:23:45;;;;;;;0.70;0.50;;;5.80;99.90;;;;;;5017815;28;20611;-68
2021/10/16 03:26:11;;;;;;;0.90;0.90;;;5.90;99.90;;;;;;5015828;28;20498;-67
2021/10/16 03:28:36;;;;;;;0.70;0.60;;;5.90;99.90;;;;;;5020395;28;20191;-67
2021/10/16 03:31:02;;;;;;;0.70;0.50;;;5.90;99.90;;;;;;5022850;28;20185;-67
2021/10/16 03:33:27;;;;;;;0.70;0.50;;;5.80;99.90;;;;;;5027348;28;20209;-68
2021/10/16 03:35:53;;;;;;;0.70;0.50;;;5.80;99.90;;;;;;5033567;28;20727;-67
2021/10/16 03:38:18;;;;;;;0.70;0.47;;;5.80;99.90;;;;;;5023227;28;20184;-67
2021/10/16 03:40:44;;;;;;;0.70;0.50;;;5.80;99.90;;;;;;5028895;28;20230;-67
2021/10/16 03:43:10;;;;;;;0.87;0.87;;;5.80;99.90;;;;;;5029702;28;20192;-69
2021/10/16 03:45:35;;;;;;;0.70;0.50;;;5.80;99.90;;;;;;5018171;28;20321;-67
2021/10/16 03:48:01;;;;;;;0.70;0.60;;;5.80;99.90;;;;;;5018739;28;20190;-67
2021/10/16 03:50:26;;;;;;;0.70;0.50;;;5.80;99.90;;;;;;5022045;28;20554;-67
2021/10/16 03:52:52;;;;;;;0.70;0.50;;;5.80;99.90;;;;;;5017080;28;20183;-67
2021/10/16 03:55:17;;;;;;;0.70;0.50;;;5.80;99.90;;;;;;5014240;28;20211;-67
2021/10/16 03:57:43;;;;;;;0.70;0.50;;;5.80;99.90;;;;;;5020559;28;20202;-68
2021/10/16 04:00:15;;;;;;;0.70;0.50;;;5.80;99.90;;;;;;5018172;28;20233;-68
2021/10/16 04:02:42;;;;;;;0.70;0.40;;;5.80;99.90;;;;;;5028802;28;20644;-67
2021/10/16 04:05:08;;;;;;;0.70;0.50;;;5.70;99.90;;;;;;5032366;28;20528;-68
2021/10/16 04:07:34;;;;;;;0.70;0.50;;;5.80;99.90;;;;;;5031562;28;20434;-67
2021/10/16 04:09:59;;;;;;;0.70;0.50;;;5.80;99.90;;;;;;5032801;28;20553;-67
2021/10/16 04:12:25;;;;;;;0.70;0.50;;;5.80;99.90;;;;;;5015288;28;20557;-68
2021/10/16 04:14:50;;;;;;;1.00;0.73;;;5.80;99.90;;;;;;5023939;28;20220;-68
2021/10/16 04:17:16;;;;;;;0.80;0.70;;;5.80;99.90;;;;;;5024328;28;20183;-67
2021/10/16 04:19:41;;;;;;;0.80;0.70;;;5.80;99.90;;;;;;5029488;28;20180;-68
2021/10/16 04:22:07;;;;;;;0.70;0.50;;;5.80;99.90;;;;;;5028920;28;20241;-67
2021/10/16 04:24:32;;;;;;;0.70;0.50;;;5.70;99.90;;;;;;5014189;28;20709;-66
2021/10/16 04:26:58;;;;;;;0.70;0.50;;;5.70;99.90;;;;;;5015325;28;20271;-68
2021/10/16 04:29:24;;;;;;;0.70;0.60;;;5.60;99.90;;;;;;5017773;28;20279;-68
2021/10/16 04:31:50;;;;;;;0.70;0.50;;;5.60;99.90;;;;;;5018145;28;20267;-67
2021/10/16 04:34:15;;;;;;;0.70;0.60;;;5.70;99.90;;;;;;5031497;28;20536;-68
2021/10/16 04:36:41;;;;;;;0.70;0.50;;;5.60;99.90;;;;;;5031497;28;20437;-68
2021/10/16 04:39:07;;;;;;;0.70;0.50;;;5.50;99.90;;;;;;5015896;28;20172;-67
2021/10/16 04:41:35;;;;;;;0.80;0.70;;;5.50;99.90;;;;;;5025478;28;20704;-67
2021/10/16 04:44:00;;;;;;;0.70;0.50;;;5.50;99.90;;;;;;5031937;28;20648;-67
2021/10/16 04:46:26;;;;;;;0.70;0.50;;;5.40;99.90;;;;;;5022383;28;20468;-67
2021/10/16 04:48:51;;;;;;;0.70;0.50;;;5.40;99.90;;;;;;5032503;28;20191;-67
2021/10/16 04:51:17;;;;;;;1.20;1.10;;;5.40;99.90;;;;;;5032250;28;20215;-67
2021/10/16 04:53:43;;;;;;;0.70;0.47;;;5.40;99.90;;;;;;5032144;28;20179;-67
2021/10/16 04:56:08;;;;;;;0.70;0.50;;;5.40;99.90;;;;;;5031711;28;20219;-67
2021/10/16 04:58:34;;;;;;;0.70;0.50;;;5.30;99.90;;;;;;5028496;28;20180;-67
2021/10/16 05:00:59;;;;;;;0.70;0.50;;;5.40;99.90;;;;;;5018913;28;20641;-67
2021/10/16 05:03:25;;;;;;;0.70;0.50;;;5.40;99.90;;;;;;5031648;28;20178;-67
2021/10/16 05:05:53;;;;;;;0.70;0.50;;;5.30;99.90;;;;;;5014043;28;20242;-67
2021/10/16 05:08:18;;;;;;;0.80;0.77;;;5.40;99.90;;;;;;5011797;28;20231;-67
2021/10/16 05:10:44;;;;;;;0.80;0.60;;;5.40;99.90;;;;;;5024938;28;20422;-68
2021/10/16 05:13:10;;;;;;;0.70;0.50;;;5.30;99.90;;;;;;5013848;28;20223;-67
2021/10/16 05:15:35;;;;;;;0.93;0.93;;;5.30;99.90;;;;;;5030971;28;20192;-67
2021/10/16 05:18:01;;;;;;;0.70;0.50;;;5.20;99.90;;;;;;5030648;28;20179;-67
2021/10/16 05:20:26;;;;;;;0.70;0.50;;;5.10;99.90;;;;;;5020276;28;20167;-67
2021/10/16 05:22:52;;;;;;;0.70;0.53;;;5.10;99.90;;;;;;5031903;28;20179;-67
2021/10/16 05:25:18;;;;;;;0.70;0.50;;;5.10;99.90;;;;;;5023342;28;20204;-68
2021/10/16 05:27:43;;;;;;;0.70;0.50;;;5.10;99.90;;;;;;5026375;28;20172;-67
2021/10/16 05:30:10;;;;;;;0.70;0.50;;;5.00;99.90;;;;;;5020401;28;20168;-68
2021/10/16 05:32:36;;;;;;;0.70;0.67;;;5.10;99.90;;;;;;5023884;28;20176;-67
2021/10/16 05:35:03;;;;;;;0.70;0.50;;;5.00;99.90;;;;;;5021723;28;20534;-67
2021/10/16 05:37:29;;;;;;;0.70;0.50;;;5.00;99.90;;;;;;5012800;28;20454;-68
2021/10/16 05:39:54;;;;;;;0.70;0.50;;;4.90;99.90;;;;;;5018404;28;20430;-67
2021/10/16 05:42:20;;;;;;;0.70;0.50;;;4.80;99.90;;;;;;5029006;28;20183;-67
2021/10/16 05:44:46;;;;;;;0.70;0.50;;;4.70;99.90;;;;;;5019269;28;20210;-68
2021/10/16 05:47:11;;;;;;;0.70;0.50;;;4.60;99.90;;;;;;5017944;28;20168;-67
2021/10/16 05:49:37;;;;;;;1.03;0.80;;;4.60;99.90;;;;;;5017689;28;20456;-68
2021/10/16 05:52:03;;;;;;;0.70;0.50;;;4.50;99.90;;;;;;5032313;28;20194;-67
2021/10/16 05:54:28;;;;;;;0.70;0.50;;;4.30;99.90;;;;;;5026855;28;20203;-67
2021/10/16 05:56:54;;;;;;;0.70;0.50;;;4.40;99.90;;;;;;5025919;28;20442;-68
2021/10/16 05:59:19;;;;;;;0.70;0.50;;;4.30;99.90;;;;;;5012430;28;20176;-67
2021/10/16 06:01:45;;;;;;;0.70;0.50;;;4.20;99.90;;;;;;5021773;28;20180;-69
2021/10/16 06:04:11;;;;;;;0.70;0.50;;;4.20;99.90;;;;;;5022453;28;20200;-67
2021/10/16 06:06:36;;;;;;;1.10;0.70;;;4.20;99.90;;;;;;5014611;28;20299;-68
2021/10/16 06:09:02;;;;;;;0.70;0.53;;;4.20;99.90;;;;;;5017650;28;20210;-68
2021/10/16 06:11:28;;;;;;;0.70;0.50;;;4.30;99.90;;;;;;5021188;28;20172;-68
2021/10/16 06:13:54;;;;;;;0.70;0.53;;;4.20;99.90;;;;;;5017616;28;20437;-68
2021/10/16 06:16:19;;;;;;;0.80;0.80;;;4.10;99.90;;;;;;5013890;28;20641;-67
2021/10/16 06:18:45;;;;;;;0.70;0.47;;;4.10;99.90;;;;;;5017966;28;20176;-67
2021/10/16 06:21:11;;;;;;;0.70;0.50;;;4.10;99.90;;;;;;5019949;28;20191;-67
2021/10/16 06:23:37;;;;;;;0.70;0.50;;;4.10;99.90;;;;;;5031773;28;20172;-67
2021/10/16 06:26:03;;;;;;;0.70;0.50;;;4.10;99.90;;;;;;5026995;28;20469;-67
2021/10/16 06:28:29;;;;;;;0.70;0.50;;;4.10;99.90;;;;;;5015186;28;20521;-67
2021/10/16 06:30:54;;;;;;;0.70;0.40;;;4.20;99.90;;;;;;5011911;28;20462;-68
2021/10/16 06:33:20;;;;;;;0.70;0.50;;;4.20;99.90;;;;;;5010627;28;20177;-68
2021/10/16 06:35:46;;;;;;;0.70;0.50;;;4.30;99.90;;;;;;5015949;28;20195;-67
2021/10/16 06:38:11;;;;;;;0.70;0.50;;;4.30;99.90;;;;;;5019248;28;20547;-67
2021/10/16 06:40:37;;;;;;;0.70;0.50;;;4.30;99.90;;;;;;5024568;28;20671;-68
2021/10/16 06:43:03;;;;;;;1.37;1.07;;;4.20;99.90;;;;;;5024818;28;20279;-68
2021/10/16 06:45:28;;;;;;;0.70;0.50;;;4.30;99.90;;;;;;5018805;28;20701;-68
2021/10/16 06:47:54;;;;;;;0.70;0.47;;;4.30;99.90;;;;;;5022075;28;20754;-67
2021/10/16 06:50:20;;;;;;;0.70;0.50;;;4.40;99.90;;;;;;5017019;28;20258;-67
2021/10/16 06:52:45;;;;;;;0.87;0.67;;;4.30;99.90;;;;;;5022334;28;20204;-67
2021/10/16 06:55:12;;;;;;;0.80;0.67;;;4.40;99.90;;;;;;5017020;28;20990;-67
2021/10/16 06:57:37;;;;;;;1.20;1.10;;;4.40;99.90;;;;;;5016871;28;20591;-67
2021/10/16 07:00:05;;;;;;;0.70;0.50;;;4.50;99.90;;;;;;5027756;28;20441;-68
2021/10/16 07:02:31;;;;;;;1.27;0.80;;;4.60;99.90;;;;;;5025177;28;20179;-68
2021/10/16 07:04:56;;;;;;;0.70;0.50;;;4.80;99.90;;;;;;5030039;28;20557;-67
2021/10/16 07:07:22;;;;;;;0.70;0.43;;;4.90;99.90;;;;;;5026756;28;20203;-68
2021/10/16 07:09:48;;;;;;;0.80;0.80;;;5.00;99.90;;;;;;5033250;28;20241;-67
2021/10/16 07:12:13;;;;;;;0.70;0.50;;;5.10;99.90;;;;;;5016053;28;20211;-67
2021/10/16 07:14:39;;;;;;;0.70;0.50;;;5.20;99.90;;;;;;5030824;28;20207;-67
2021/10/16 07:17:04;;;;;;;1.73;0.93;;;5.40;99.90;;;;;;5029277;28;20188;-67
2021/10/16 07:19:31;;;;;;;1.30;1.20;;;5.40;99.90;;;;;;5023236;28;20176;-67
2021/10/16 07:21:57;;;;;;;0.97;0.80;;;5.60;99.90;;;;;;5022768;28;20260;-67
2021/10/16 07:24:22;;;;;;;1.03;0.90;;;5.70;99.90;;;;;;5018577;28;20569;-67
2021/10/16 07:26:48;;;;;;;0.70;0.50;;;5.80;99.90;;;;;;5034062;28;20221;-67
2021/10/16 07:29:13;;;;;;;0.90;0.60;;;5.80;99.90;;;;;;5034654;28;20177;-68
2021/10/16 07:31:39;;;;;;;0.70;0.63;;;6.00;99.90;;;;;;5028605;28;20591;-68
2021/10/16 07:34:05;;;;;;;0.80;0.60;;;6.20;99.90;;;;;;5023344;28;20180;-67
2021/10/16 07:36:40;;;;;;;0.70;0.50;;;6.20;99.90;;;;;;5026358;28;20521;-67
2021/10/16 07:39:07;;;;;;;1.20;1.10;;;6.40;99.90;;;;;;5031883;28;20266;-68
2021/10/16 07:41:34;;;;;;;0.70;0.50;;;6.50;99.90;;;;;;5022438;28;20441;-67
2021/10/16 07:44:00;;;;;;;0.70;0.50;;;6.70;99.90;;;;;;5030082;28;20479;-69
2021/10/16 07:46:25;;;;;;;2.40;1.03;;;6.80;99.90;;;;;;5031553;28;21014;-68
2021/10/16 07:48:51;;;;;;;0.70;0.50;;;6.80;99.90;;;;;;5026783;28;20180;-68
2021/10/16 07:51:17;;;;;;;0.70;0.50;;;7.00;99.90;;;;;;5018421;28;21851;-68
2021/10/16 07:53:42;;;;;;;0.70;0.50;;;7.20;99.90;;;;;;5031992;28;20200;-67
2021/10/16 07:56:08;;;;;;;1.07;0.97;;;7.20;99.90;;;;;;5024280;28;20215;-67
2021/10/16 07:58:35;;;;;;;0.80;0.73;;;7.30;99.90;;;;;;5015140;28;20168;-67
2021/10/16 08:01:01;;;;;;;1.17;1.10;;;7.50;99.90;;;;;;5027034;28;20176;-67
2021/10/16 08:03:26;;;;;;;0.70;0.50;;;7.60;99.90;;;;;;5014733;28;20423;-68
2021/10/16 08:05:52;;;;;;;0.70;0.57;;;7.80;99.90;;;;;;5025459;28;20200;-67
2021/10/16 08:08:17;;;;;;;0.90;0.70;;;7.90;99.90;;;;;;5026702;28;20739;-67
2021/10/16 08:10:43;;;;;;;2.20;2.10;;;8.00;99.90;;;;;;5025326;28;20179;-67
2021/10/16 08:13:08;;;;;;;1.57;0.80;;;8.10;99.90;;;;;;5014543;28;20180;-68
2021/10/16 08:15:34;;;;;;;2.23;1.83;;;8.10;99.90;;;;;;5021944;28;20195;-67
2021/10/16 08:18:01;;;;;;;1.57;1.43;;;8.30;99.90;;;;;;5032685;28;20640;-68
2021/10/16 08:20:27;;;;;;;0.70;0.60;;;8.50;99.90;;;;;;5018615;28;20267;-67
2021/10/16 08:22:52;;;;;;;0.80;0.60;;;8.60;99.90;;;;;;5025351;28;20427;-67
2021/10/16 08:25:18;;;;;;;0.90;0.80;;;8.70;99.90;;;;;;5017997;28;20490;-67
2021/10/16 08:27:46;;;;;;;0.80;0.60;;;8.80;99.90;;;;;;5014040;28;20180;-67
2021/10/16 08:30:12;;;;;;;2.90;2.60;;;9.00;99.90;;;;;;5013990;28;20208;-67
2021/10/16 08:32:38;;;;;;;0.70;0.60;;;8.80;99.90;;;;;;5015025;28;20454;-67
2021/10/16 08:35:05;;;;;;;0.70;0.50;;;8.90;99.90;;;;;;5015140;28;20439;-67
2021/10/16 08:37:30;;;;;;;0.80;0.80;;;8.90;99.90;;;;;;5031651;28;20430;-67
2021/10/16 08:39:56;;;;;;;3.03;1.53;;;9.10;99.90;;;;;;5032087;28;20429;-67
2021/10/16 08:42:21;;;;;;;5.07;1.43;;;9.20;99.90;;;;;;5028860;28;20238;-67
2021/10/16 08:44:47;;;;;;;2.73;2.63;;;9.20;99.90;;;;;;5016699;28;20261;-68
2021/10/16 08:47:13;;;;;;;2.57;2.37;;;9.20;99.90;;;;;;5019466;28;20180;-67
2021/10/16 08:49:44;;;;;;;1.10;0.70;;;9.00;99.90;;;;;;5022471;28;20187;-68
2021/10/16 08:52:10;;;;;;;8.37;3.63;;;9.10;99.90;;;;;;5016656;28;20474;-69
2021/10/16 08:54:39;;;;;;;1.70;1.23;;;8.90;99.90;;;;;;5025719;28;20839;-70
2021/10/16 08:57:05;;;;;;;3.80;3.03;;;8.90;99.90;;;;;;5025621;28;20188;-67
2021/10/16 08:59:31;;;;;;;2.20;2.10;;;9.00;99.90;;;;;;5015934;28;20427;-69
2021/10/16 09:02:03;;;;;;;0.70;0.50;;;9.30;99.90;;;;;;5019176;28;20430;-67
2021/10/16 09:04:29;;;;;;;1.57;0.93;;;9.40;99.90;;;;;;5017653;28;20188;-70
2021/10/16 09:06:55;;;;;;;3.60;3.30;;;9.70;99.90;;;;;;5017872;28;20438;-67
2021/10/16 09:09:31;;;;;;;4.23;3.03;;;9.90;99.90;;;;;;5019514;28;20423;-68
2021/10/16 09:11:57;;;;;;;1.30;1.20;;;10.10;99.90;;;;;;5014502;28;20191;-71
2021/10/16 09:14:28;;;;;;;2.00;1.13;;;10.40;99.90;;;;;;5024238;28;20816;-67
2021/10/16 09:17:02;;;;;;;1.83;1.73;;;10.30;99.90;;;;;;5023740;28;20429;-68
2021/10/16 09:19:30;;;;;;;1.80;1.70;;;10.40;99.90;;;;;;5022292;28;20415;-68
2021/10/16 09:22:06;;;;;;;4.40;4.10;;;10.40;99.90;;;;;;5020107;28;20471;-68
2021/10/16 09:24:40;;;;;;;1.10;1.00;;;10.60;99.90;;;;;;5013322;28;20449;-68
2021/10/16 09:27:14;;;;;;;7.80;1.97;;;10.90;99.90;;;;;;5017137;28;20415;-67
2021/10/16 09:29:42;;;;;;;2.37;2.27;;;10.70;99.90;;;;;;5029389;28;20414;-69
2021/10/16 09:32:13;;;;;;;0.80;0.70;;;11.20;99.90;;;;;;5016801;28;20426;-67
2021/10/16 09:34:44;;;;;;;9.80;3.70;;;11.00;99.90;;;;;;5017292;28;20437;-69
2021/10/16 09:37:14;;;;;;;1.50;1.40;;;11.10;99.90;;;;;;5031125;28;20414;-69
2021/10/16 09:39:44;;;;;;;8.30;2.07;;;11.10;99.90;;;;;;5023505;28;20426;-69
2021/10/16 09:42:11;;;;;;;2.07;1.87;;;11.00;99.90;;;;;;5031363;28;20415;-69
2021/10/16 09:44:39;;;;;;;4.27;3.93;;;11.20;99.90;;;;;;5030847;28;20438;-69
2021/10/16 09:47:15;;;;;;;4.17;2.00;;;11.20;99.90;;;;;;5032332;28;20421;-69
2021/10/16 09:49:57;;;;;;;9.63;4.27;;;11.20;99.90;;;;;;5031926;28;20499;-69
2021/10/16 09:52:33;;;;;;;2.97;2.40;;;11.70;99.90;;;;;;5021722;28;20541;-69
2021/10/16 09:54:58;;;;;;;3.27;2.27;;;12.40;99.90;;;;;;5012456;28;20544;-68
2021/10/16 09:57:25;;;;;;;2.50;2.00;;;12.80;99.90;;;;;;5012584;28;20983;-69
2021/10/16 09:59:52;;;;;;;3.27;2.97;;;13.30;99.90;;;;;;5012568;28;20211;-69
2021/10/16 10:02:18;;;;;;;5.33;4.07;;;13.00;99.90;;;;;;5013716;28;20466;-70
2021/10/16 10:04:47;;;;;;;8.97;5.50;;;12.80;99.90;;;;;;5012326;28;20454;-69
2021/10/16 10:07:14;;;;;;;2.37;2.23;;;12.80;99.90;;;;;;5019524;28;20414;-69
2021/10/16 10:09:41;;;;;;;1.83;1.73;;;12.70;99.90;;;;;;5015251;28;20502;-70
2021/10/16 10:12:09;;;;;;;5.70;2.93;;;12.90;99.90;;;;;;5012437;28;20904;-69
2021/10/16 10:14:38;;;;;;;3.30;3.20;;;13.10;99.90;;;;;;5025541;28;20438;-69
2021/10/16 10:17:05;;;;;;;6.73;3.07;;;13.20;99.90;;;;;;5031872;28;20407;-70
2021/10/16 10:19:36;;;;;;;5.13;2.77;;;13.50;99.90;;;;;;5032049;28;20481;-70
2021/10/16 10:22:01;;;;;;;4.47;3.27;;;13.70;99.90;;;;;;5018305;28;20442;-69
2021/10/16 10:24:38;;;;;;;7.93;4.33;;;14.00;99.90;;;;;;5021202;28;20438;-69
2021/10/16 10:27:06;;;;;;;6.30;2.10;;;14.20;99.90;;;;;;5014096;28;20544;-70
2021/10/16 10:29:37;;;;;;;2.47;2.13;;;14.40;99.90;;;;;;5025161;28;20447;-69
2021/10/16 10:32:24;;;;;;;1.87;1.77;;;14.80;99.90;;;;;;5030900;28;20414;-69
2021/10/16 10:34:58;;;;;;;4.00;3.40;;;15.20;99.90;;;;;;5030833;28;20481;-69
2021/10/16 10:37:30;;;;;;;3.03;2.73;;;16.60;99.90;;;;;;5031727;28;20453;-69
2021/10/16 10:39:57;;;;;;;6.63;5.13;;;17.60;99.90;;;;;;5030003;28;20429;-69
2021/10/16 10:42:23;;;;;;;7.53;5.23;;;17.50;99.90;;;;;;5030795;28;20448;-69
2021/10/16 10:44:59;;;;;;;9.10;4.23;;;18.00;99.90;;;;;;5014130;28;20462;-69
2021/10/16 10:47:28;;;;;;;3.37;2.17;;;18.80;99.90;;;;;;5013043;28;20521;-70
2021/10/16 10:49:59;;;;;;;6.23;5.60;;;18.20;99.90;;;;;;5011775;28;20457;-69
2021/10/16 10:52:28;;;;;;;3.80;3.07;;;19.50;99.90;;;;;;5012045;28;20427;-70
2021/10/16 10:55:00;;;;;;;8.47;2.37;;;20.40;99.90;;;;;;5017164;28;20478;-70
2021/10/16 10:57:48;;;;;;;3.30;3.10;;;21.10;99.90;;;;;;5016247;28;20520;-69
2021/10/16 11:00:36;;;;;;;3.63;3.33;;;21.50;99.90;;;;;;5029900;28;20419;-69
2021/10/16 11:03:35;;;;;;;3.13;1.80;;;22.50;95.40;;;;;;5018584;28;20442;-70
2021/10/16 11:06:22;;;;;;;3.87;3.47;;;22.40;90.30;;;;;;5029780;28;20485;-69
2021/10/16 11:08:49;;;;;;;3.67;1.80;;;22.70;88.10;;;;;;5030822;28;20407;-69
2021/10/16 11:11:16;;;;;;;4.57;3.13;;;23.40;87.70;;;;;;5030528;28;20429;-69
2021/10/16 11:13:41;;;;;;;4.33;2.47;;;23.90;77.40;;;;;;5018627;28;20422;-70
2021/10/16 11:16:07;;;;;;;3.00;2.53;;;24.60;76.10;;;;;;5030926;28;20499;-70
2021/10/16 11:18:33;;;;;;;3.87;2.43;;;24.80;72.90;;;;;;5025527;28;20178;-70
2021/10/16 11:21:07;;;;;;;3.33;2.83;;;25.20;70.80;;;;;;5011944;28;20691;-69
2021/10/16 11:23:37;;;;;;;3.73;2.83;;;25.30;67.20;;;;;;5027449;28;20178;-70
2021/10/16 11:26:14;;;;;;;2.47;2.27;;;26.00;64.00;;;;;;5014891;28;20895;-70
2021/10/16 11:28:43;;;;;;;2.50;2.30;;;25.30;64.40;;;;;;5025609;28;20496;-70
2021/10/16 11:31:08;;;;;;;2.40;2.27;;;25.70;64.30;;;;;;5012826;28;20451;-70
2021/10/16 11:33:38;;;;;;;4.23;3.40;;;26.10;62.30;;;;;;5011662;28;20427;-70
2021/10/16 11:36:04;;;;;;;3.30;2.53;;;26.40;58.60;;;;;;5027703;28;20191;-70
2021/10/16 11:38:33;;;;;;;11.60;2.67;;;25.70;57.30;;;;;;5030356;28;20464;-69
2021/10/16 11:41:00;;;;;;;4.43;4.03;;;26.20;58.20;;;;;;5023346;28;20427;-69
2021/10/16 11:43:39;;;;;;;3.07;2.80;;;26.60;58.10;;;;;;5023179;28;20433;-70
2021/10/16 11:46:22;;;;;;;4.73;2.00;;;27.10;57.60;;;;;;5017057;28;20462;-70
2021/10/16 11:48:49;;;;;;;3.87;3.57;;;27.20;55.50;;;;;;5015114;28;20427;-70
2021/10/16 11:51:14;;;;;;;1.90;1.40;;;27.10;56.40;;;;;;5016025;28;20415;-71
2021/10/16 11:53:44;;;;;;;3.20;2.70;;;27.50;55.80;;;;;;5013669;28;20481;-70
2021/10/16 11:56:12;;;;;;;2.00;1.87;;;27.50;54.60;;;;;;5015287;28;20278;-70
2021/10/16 11:58:39;;;;;;;4.73;2.57;;;27.20;54.40;;;;;;5023786;28;20423;-70
2021/10/16 12:01:09;;;;;;;3.57;2.40;;;27.80;55.70;;;;;;5014682;28;20454;-71
2021/10/16 12:03:40;;;;;;;2.27;2.07;;;28.20;53.40;;;;;;5014755;28;20454;-70
2021/10/16 12:06:16;;;;;;;2.07;1.87;;;27.60;51.80;;;;;;5030830;28;20870;-70
2021/10/16 12:08:50;;;;;;;3.10;2.27;;;27.10;51.90;;;;;;5015836;28;20955;-70
2021/10/16 12:11:29;;;;;;;2.00;1.43;;;27.60;52.00;;;;;;5015691;28;20407;-70
2021/10/16 12:13:56;;;;;;;3.07;1.90;;;28.10;51.80;;;;;;5014522;28;20932;-71
2021/10/16 12:16:34;;;;;;;2.57;2.37;;;27.50;51.80;;;;;;5033262;28;20525;-70
2021/10/16 12:19:02;;;;;;;2.50;1.90;;;27.30;51.20;;;;;;5032497;28;20501;-70
2021/10/16 12:21:37;;;;;;;1.60;1.50;;;26.40;51.50;;;;;;5031575;28;20437;-69
2021/10/16 12:24:15;;;;;;;9.83;3.93;;;27.60;52.30;;;;;;5033181;28;20918;-70
2021/10/16 12:26:43;;;;;;;2.60;2.40;;;27.30;51.00;;;;;;5020975;28;20461;-70
2021/10/16 12:29:11;;;;;;;0.90;0.70;;;27.90;49.50;;;;;;5032127;28;20427;-70
2021/10/16 12:31:49;;;;;;;3.30;1.50;;;27.30;48.70;;;;;;5033743;28;20967;-70
2021/10/16 12:34:29;;;;;;;1.00;0.83;;;26.80;50.10;;;;;;5033393;28;20553;-70
2021/10/16 12:36:55;;;;;;;1.00;0.60;;;27.40;48.70;;;;;;5032157;28;20818;-71
2021/10/16 12:39:32;;;;;;;6.40;2.40;;;27.10;46.20;;;;;;5022883;28;20502;-70
2021/10/16 12:42:08;;;;;;;1.73;1.63;;;26.90;47.00;;;;;;5014161;28;20199;-70
2021/10/16 12:44:36;;;;;;;1.10;0.90;;;26.50;48.60;;;;;;5013817;28;20434;-69
2021/10/16 12:47:04;;;;;;;0.80;0.60;;;25.80;44.50;;;;;;5021086;28;20417;-70
2021/10/16 12:49:43;;;;;;;0.80;0.60;;;27.40;46.00;;;;;;5022489;28;20417;-70
2021/10/16 12:52:27;;;;;;;1.27;0.80;;;27.10;45.10;;;;;;5014474;28;20415;-70
2021/10/16 12:54:54;;;;;;;1.80;1.70;;;27.90;47.50;;;;;;5014210;28;20435;-70